KOXC/OXC METAR and TAF weather

Enter ICAO airport designator
Station Type Date Time Source
KOXC METAR 2019/06/27 09:51 UTC NOAA

KOXC 270951Z AUTO 30003KT 10SM 16/15 A3013 RMK AO2 SLP209 T01610150


Station Type Date Time Source
KOXC Decoded METAR 2019/06/27 09:51 UTC NOAA

Oxford, Waterbury-Oxford Airport, CT, United States (KOXC) 41-29N 073-08W
Jun 27, 2019 - 05:51 AM EDT / 2019.06.27 0951 UTC
Wind: from the WNW (300 degrees) at 3 MPH (3 KT):0
Visibility: 10 mile(s):0
Temperature: 61.0 F (16.1 C)
Dew Point: 59.0 F (15.0 C)
Relative Humidity: 93%
Pressure (altimeter): 30.13 in. Hg (1020 hPa)
ob: KOXC 270951Z AUTO 30003KT 10SM 16/15 A3013 RMK AO2 SLP209 T01610150
cycle: 10

Station Type Date Time Source
KOXC TAF UTC NOAA

Error!

Example: see airport list